createdAt,value
2023-01-28T00:02:23.575Z,14.50
2023-01-28T00:05:10.954Z,16.27
2023-01-28T00:07:57.923Z,17.60
2023-01-28T00:10:44.758Z,14.75
2023-01-28T00:13:32.878Z,17.52
2023-01-28T00:16:20.091Z,13.68
2023-01-28T00:19:07.264Z,15.40
2023-01-28T00:21:54.003Z,14.80
2023-01-28T00:24:40.827Z,14.20
2023-01-28T00:27:27.601Z,14.63
2023-01-28T00:30:14.547Z,16.67
2023-01-28T00:33:02.576Z,13.93
2023-01-28T00:35:58.485Z,14.85
2023-01-28T00:38:50.072Z,13.82
2023-01-28T00:41:37.455Z,15.80
2023-01-28T00:44:24.394Z,15.10
2023-01-28T00:47:11.304Z,14.82
2023-01-28T00:49:58.070Z,15.30
2023-01-28T00:52:44.853Z,14.68
2023-01-28T00:55:31.622Z,15.23
2023-01-28T00:58:19.367Z,15.70
2023-01-28T01:01:21.790Z,15.27
2023-01-28T01:04:08.631Z,13.60
2023-01-28T01:06:55.508Z,13.98
2023-01-28T01:09:42.335Z,13.80
2023-01-28T01:12:29.167Z,14.35
2023-01-28T01:15:17.383Z,13.35
2023-01-28T01:18:04.246Z,14.77
2023-01-28T01:20:52.863Z,13.55
2023-01-28T01:23:40.211Z,13.20
2023-01-28T01:26:27.462Z,14.25
2023-01-28T01:29:14.273Z,13.57
2023-01-28T01:32:01.111Z,12.55
2023-01-28T01:34:48.255Z,13.10
2023-01-28T01:37:35.839Z,14.10
2023-01-28T01:40:22.616Z,13.73
2023-01-28T01:43:20.109Z,14.25
2023-01-28T01:46:06.917Z,13.20
2023-01-28T01:48:55.214Z,11.88
2023-01-28T01:51:43.186Z,14.00
2023-01-28T01:54:31.485Z,13.75
2023-01-28T01:57:23.069Z,12.95
2023-01-28T02:00:10.843Z,13.68
2023-01-28T02:02:58.971Z,13.90
2023-01-28T02:05:45.725Z,14.77
2023-01-28T02:08:32.587Z,13.70
2023-01-28T02:11:19.455Z,12.77
2023-01-28T02:14:07.500Z,15.13
2023-01-28T02:16:54.799Z,14.70
2023-01-28T02:19:51.354Z,12.60
2023-01-28T02:22:53.383Z,14.75
2023-01-28T02:26:08.335Z,12.57
2023-01-28T02:29:18.900Z,13.15
2023-01-28T02:32:12.940Z,14.80
2023-01-28T02:35:07.814Z,12.90
2023-01-28T02:38:03.591Z,14.85
2023-01-28T02:41:13.216Z,12.93
2023-01-28T02:44:02.633Z,13.27
2023-01-28T02:47:11.211Z,14.85
2023-01-28T02:50:00.948Z,12.90
2023-01-28T02:53:12.599Z,14.57
2023-01-28T02:56:11.258Z,11.93
2023-01-28T02:59:33.964Z,11.98
2023-01-28T03:02:31.202Z,13.65
2023-01-28T03:05:25.218Z,11.70
2023-01-28T03:08:44.899Z,13.07
2023-01-28T03:11:53.397Z,13.02
2023-01-28T03:14:59.734Z,13.15
2023-01-28T03:18:08.797Z,12.38
2023-01-28T03:21:26.295Z,12.50
2023-01-28T03:24:36.123Z,12.18
2023-01-28T03:27:48.633Z,12.85
2023-01-28T03:31:00.909Z,13.00
2023-01-28T03:34:06.941Z,13.13
2023-01-28T03:36:54.253Z,13.85
2023-01-28T03:39:41.119Z,13.32
2023-01-28T03:42:27.888Z,12.23
2023-01-28T03:45:15.181Z,12.82
2023-01-28T03:48:02.189Z,13.43
2023-01-28T03:50:49.500Z,13.25
2023-01-28T03:53:36.593Z,12.45
2023-01-28T03:56:24.390Z,14.38
2023-01-28T03:59:11.212Z,12.40
2023-01-28T04:01:58.023Z,12.43
2023-01-28T04:04:45.159Z,15.27
2023-01-28T04:07:31.963Z,13.73
2023-01-28T04:10:18.797Z,13.13
2023-01-28T04:13:06.707Z,12.18
2023-01-28T04:15:53.522Z,13.15
2023-01-28T04:18:40.320Z,12.63
2023-01-28T04:21:27.121Z,13.35
2023-01-28T04:24:14.009Z,12.98
2023-01-28T04:27:00.853Z,12.23
2023-01-28T04:29:47.598Z,12.88
2023-01-28T04:32:34.495Z,12.88
2023-01-28T04:35:21.352Z,13.70
2023-01-28T04:38:08.689Z,13.00
2023-01-28T04:40:55.518Z,13.63
2023-01-28T04:43:42.343Z,13.43
2023-01-28T04:46:29.201Z,12.43
2023-01-28T04:49:15.979Z,13.60
2023-01-28T04:52:02.838Z,12.85
2023-01-28T04:54:49.631Z,13.85
2023-01-28T04:57:36.779Z,13.40
2023-01-28T05:00:23.541Z,13.50
2023-01-28T05:03:10.364Z,15.25
2023-01-28T05:06:05.763Z,12.93
2023-01-28T05:08:52.539Z,13.70
2023-01-28T05:11:39.474Z,11.57
2023-01-28T05:14:26.310Z,13.68
2023-01-28T05:17:13.189Z,13.68
2023-01-28T05:19:59.968Z,11.65
2023-01-28T05:22:47.072Z,13.82
2023-01-28T05:25:33.852Z,13.70
2023-01-28T05:28:20.638Z,12.48
2023-01-28T05:31:07.663Z,12.48
2023-01-28T05:33:54.531Z,13.73
2023-01-28T05:36:41.325Z,12.45
2023-01-28T05:39:28.194Z,12.98
2023-01-28T05:42:15.687Z,12.75
2023-01-28T05:45:02.649Z,12.68
2023-01-28T05:47:49.498Z,13.18
2023-01-28T05:50:36.284Z,13.23
2023-01-28T05:53:23.118Z,14.45
2023-01-28T05:56:09.939Z,13.43
2023-01-28T05:58:56.726Z,13.48
2023-01-28T06:01:43.553Z,13.35
2023-01-28T06:04:30.443Z,15.15
2023-01-28T06:07:20.173Z,13.20
2023-01-28T06:10:07.376Z,13.70
2023-01-28T06:12:54.146Z,14.90
2023-01-28T06:15:40.967Z,14.75
2023-01-28T06:18:27.787Z,16.80
2023-01-28T06:21:14.572Z,18.27
2023-01-28T06:24:01.438Z,16.85
2023-01-28T06:26:48.264Z,14.63
2023-01-28T06:29:35.565Z,13.80
2023-01-28T06:32:22.352Z,13.13
2023-01-28T06:35:09.803Z,15.02
2023-01-28T06:37:56.802Z,15.02
2023-01-28T06:40:43.587Z,13.30
2023-01-28T06:43:30.838Z,13.82
2023-01-28T06:46:17.891Z,16.13
2023-01-28T06:49:04.740Z,15.20
2023-01-28T06:51:53.991Z,14.23
2023-01-28T06:54:40.814Z,15.05
2023-01-28T06:57:27.637Z,14.60
2023-01-28T07:00:16.779Z,16.15
2023-01-28T07:05:51.037Z,13.70
2023-01-28T07:08:38.085Z,14.05
2023-01-28T07:11:24.865Z,14.68
2023-01-28T07:14:11.793Z,14.75
2023-01-28T07:16:58.601Z,16.35
2023-01-28T07:19:45.413Z,15.18
2023-01-28T07:22:32.169Z,14.95
2023-01-28T07:25:19.041Z,13.35
2023-01-28T07:28:05.857Z,16.13
2023-01-28T07:30:53.786Z,14.75
2023-01-28T07:33:40.683Z,16.35
2023-01-28T07:36:27.606Z,13.57
2023-01-28T07:39:14.455Z,14.50
2023-01-28T07:42:01.966Z,14.13
2023-01-28T07:44:49.703Z,14.30
2023-01-28T07:47:36.660Z,16.27
2023-01-28T07:50:24.110Z,15.80
2023-01-28T07:53:12.044Z,16.05
2023-01-28T07:56:00.826Z,14.82
2023-01-28T07:58:50.088Z,14.13
2023-01-28T08:01:36.960Z,12.88
2023-01-28T08:04:23.961Z,14.15
2023-01-28T08:07:10.785Z,15.05
2023-01-28T08:09:57.622Z,15.45
2023-01-28T08:13:01.765Z,15.75
2023-01-28T08:15:48.990Z,16.45
2023-01-28T08:18:40.580Z,16.40
2023-01-28T08:21:27.445Z,16.05
2023-01-28T08:24:17.162Z,16.55
2023-01-28T08:27:04.694Z,16.98
2023-01-28T08:29:55.918Z,17.30
2023-01-28T08:32:42.970Z,16.52
2023-01-28T08:35:32.559Z,15.00
2023-01-28T08:38:20.669Z,15.70
2023-01-28T08:41:07.478Z,14.65
2023-01-28T08:43:54.559Z,15.38
2023-01-28T08:46:41.569Z,14.63
2023-01-28T08:49:28.334Z,16.35
2023-01-28T08:52:15.131Z,16.00
2023-01-28T08:55:01.896Z,16.55
2023-01-28T08:57:48.680Z,16.85
2023-01-28T09:00:35.649Z,14.88
2023-01-28T09:03:22.467Z,15.95
2023-01-28T09:06:09.266Z,13.70
2023-01-28T09:09:02.524Z,17.25
2023-01-28T09:11:49.322Z,15.68
2023-01-28T09:14:36.085Z,15.85
2023-01-28T09:17:23.047Z,16.58
2023-01-28T09:20:11.463Z,13.90
2023-01-28T09:22:59.182Z,15.88
2023-01-28T09:25:45.984Z,15.52
2023-01-28T09:28:33.309Z,15.57
2023-01-28T09:31:20.259Z,15.02
2023-01-28T09:34:09.491Z,14.57
2023-01-28T09:36:56.415Z,16.80
2023-01-28T09:39:43.208Z,16.13
2023-01-28T09:42:48.781Z,13.23
2023-01-28T09:45:49.172Z,12.75
2023-01-28T09:48:38.769Z,15.75
2023-01-28T09:51:41.031Z,13.32
2023-01-28T09:54:43.112Z,14.77
2023-01-28T09:57:53.871Z,14.65
2023-01-28T10:01:00.530Z,14.90
2023-01-28T10:03:59.538Z,14.43
2023-01-28T10:06:57.733Z,15.70
2023-01-28T10:10:15.919Z,15.52
2023-01-28T10:13:40.150Z,15.88
2023-01-28T10:16:39.573Z,14.52
2023-01-28T10:19:43.136Z,16.13
2023-01-28T10:22:34.129Z,14.68
2023-01-28T10:25:23.367Z,15.20
2023-01-28T10:31:01.121Z,14.18
2023-01-28T10:33:47.964Z,14.85
2023-01-28T10:36:34.793Z,15.10
2023-01-28T10:39:22.891Z,14.70
2023-01-28T10:42:27.937Z,15.43
2023-01-28T10:45:23.602Z,14.65
2023-01-28T10:48:18.720Z,14.57
2023-01-28T10:51:06.121Z,13.07
2023-01-28T10:53:52.935Z,14.25
2023-01-28T10:56:43.349Z,15.38
2023-01-28T10:59:31.451Z,15.48
2023-01-28T11:02:35.729Z,14.20
2023-01-28T11:05:28.292Z,13.95
2023-01-28T11:08:17.486Z,13.73
2023-01-28T11:11:14.710Z,14.65
2023-01-28T11:14:01.569Z,14.45
2023-01-28T11:16:49.230Z,13.88
2023-01-28T11:19:36.751Z,14.18
2023-01-28T11:22:32.448Z,13.50
2023-01-28T11:25:36.964Z,14.73
2023-01-28T11:28:26.379Z,13.90
2023-01-28T11:31:15.502Z,14.32
2023-01-28T11:34:05.106Z,11.82
2023-01-28T11:36:53.685Z,12.32
2023-01-28T11:39:40.621Z,12.48
2023-01-28T11:42:32.722Z,13.38
2023-01-28T11:45:51.437Z,13.75
2023-01-28T11:49:18.336Z,14.52
2023-01-28T11:53:04.825Z,17.73
2023-01-28T11:56:04.339Z,13.65
2023-01-28T11:59:21.519Z,15.13
2023-01-28T12:02:13.951Z,14.85
2023-01-28T12:05:13.066Z,13.93
2023-01-28T12:08:27.892Z,14.13
2023-01-28T12:11:46.754Z,14.75
2023-01-28T12:15:11.254Z,12.93
2023-01-28T12:18:01.053Z,12.25
2023-01-28T12:21:11.102Z,13.77
2023-01-28T12:24:10.317Z,12.48
2023-01-28T12:30:22.487Z,13.02
2023-01-28T12:33:41.665Z,13.13
2023-01-28T12:39:39.828Z,11.98
2023-01-28T12:42:36.404Z,10.13
2023-01-28T12:45:51.227Z,9.82
2023-01-28T12:48:41.775Z,10.10
2023-01-28T12:51:43.296Z,9.00
2023-01-28T12:54:30.091Z,10.80
2023-01-28T12:57:23.572Z,9.30
2023-01-28T13:00:32.621Z,10.48
2023-01-28T13:03:26.816Z,10.00
2023-01-28T13:06:28.585Z,8.93
2023-01-28T13:09:21.143Z,10.32
2023-01-28T13:12:10.739Z,9.15
2023-01-28T13:14:59.394Z,8.95
2023-01-28T13:18:00.631Z,8.38
2023-01-28T13:20:53.000Z,10.25
2023-01-28T13:23:44.804Z,9.48
2023-01-28T13:26:50.394Z,8.65
2023-01-28T13:29:37.495Z,8.93
2023-01-28T13:32:35.347Z,10.25
2023-01-28T13:35:30.418Z,9.98
2023-01-28T13:38:19.476Z,10.57
2023-01-28T13:41:06.633Z,9.75
2023-01-28T13:43:53.599Z,8.82
2023-01-28T13:46:40.713Z,8.93
2023-01-28T13:49:47.942Z,9.73
2023-01-28T13:52:45.419Z,9.73
2023-01-28T13:55:44.838Z,10.05
2023-01-28T13:59:02.050Z,9.55
2023-01-28T14:02:03.436Z,11.07
2023-01-28T14:05:02.774Z,9.45
2023-01-28T14:08:22.750Z,9.70
2023-01-28T14:11:27.844Z,9.00
2023-01-28T14:14:43.488Z,9.35
2023-01-28T14:17:46.551Z,8.55
2023-01-28T14:20:37.814Z,9.88
2023-01-28T14:23:26.785Z,9.13
2023-01-28T14:26:25.114Z,9.57
2023-01-28T14:29:37.178Z,9.57
2023-01-28T14:32:29.433Z,8.40
2023-01-28T14:35:24.423Z,10.05
2023-01-28T14:38:21.165Z,10.43
2023-01-28T14:41:11.346Z,10.48
2023-01-28T14:43:58.544Z,10.15
2023-01-28T14:47:14.153Z,9.70
2023-01-28T14:50:06.428Z,10.05
2023-01-28T14:53:12.890Z,9.05
2023-01-28T14:56:24.813Z,9.38
2023-01-28T14:59:21.774Z,9.63
2023-01-28T15:02:23.456Z,9.68
2023-01-28T15:05:16.724Z,8.95
2023-01-28T15:08:05.063Z,9.93
2023-01-28T15:10:53.098Z,9.47
2023-01-28T15:13:43.652Z,9.00
2023-01-28T15:16:31.665Z,10.38
2023-01-28T15:19:28.061Z,9.98
2023-01-28T15:22:21.492Z,10.10
2023-01-28T15:25:19.578Z,9.25
2023-01-28T15:28:06.952Z,9.25
2023-01-28T15:30:54.047Z,9.02
2023-01-28T15:33:40.933Z,10.07
2023-01-28T15:36:28.621Z,9.75
2023-01-28T15:39:21.074Z,9.15
2023-01-28T15:42:08.014Z,9.18
2023-01-28T15:44:58.235Z,9.35
2023-01-28T15:47:52.228Z,9.82
2023-01-28T15:50:40.227Z,9.27
2023-01-28T15:53:35.623Z,9.02
2023-01-28T15:56:32.197Z,9.13
2023-01-28T15:59:25.951Z,10.05
2023-01-28T16:02:21.377Z,9.68
2023-01-28T16:05:42.552Z,9.52
2023-01-28T16:08:44.884Z,9.82
2023-01-28T16:11:41.357Z,9.48
2023-01-28T16:14:30.328Z,9.20
2023-01-28T16:17:19.436Z,10.68
2023-01-28T16:20:08.498Z,10.85
2023-01-28T16:22:58.209Z,11.07
2023-01-28T16:25:47.709Z,12.30
2023-01-28T16:28:36.678Z,12.90
2023-01-28T16:31:23.569Z,13.32
2023-01-28T16:34:13.228Z,10.68
2023-01-28T16:37:01.817Z,12.73
2023-01-28T16:39:52.080Z,13.50
2023-01-28T16:42:39.209Z,13.40
2023-01-28T16:45:26.212Z,11.98
2023-01-28T16:48:13.788Z,11.80
2023-01-28T16:51:03.539Z,11.93
2023-01-28T16:53:50.545Z,12.48
2023-01-28T16:56:46.497Z,10.82
2023-01-28T16:59:33.676Z,12.63
2023-01-28T17:02:20.583Z,12.45
2023-01-28T17:05:07.719Z,11.57
2023-01-28T17:08:05.334Z,12.80
2023-01-28T17:10:54.177Z,10.38
2023-01-28T17:13:41.075Z,10.48
2023-01-28T17:16:28.006Z,12.07
2023-01-28T17:19:16.619Z,10.00
2023-01-28T17:22:03.539Z,10.73
2023-01-28T17:24:50.327Z,12.77
2023-01-28T17:27:37.226Z,9.70
2023-01-28T17:30:24.082Z,11.32
2023-01-28T17:33:11.102Z,12.85
2023-01-28T17:35:58.616Z,10.30
2023-01-28T17:38:45.483Z,10.32
2023-01-28T17:41:32.283Z,10.70
2023-01-28T17:44:19.710Z,11.23
2023-01-28T17:47:06.531Z,10.77
2023-01-28T17:49:53.427Z,11.07
2023-01-28T17:52:41.061Z,10.02
2023-01-28T17:55:27.948Z,9.50
2023-01-28T17:58:14.728Z,11.25
2023-01-28T18:01:09.851Z,12.05
2023-01-28T18:03:58.025Z,9.80
2023-01-28T18:06:45.791Z,11.63
2023-01-28T18:09:32.577Z,10.40
2023-01-28T18:12:19.416Z,10.43
2023-01-28T18:15:07.469Z,10.38
2023-01-28T18:17:54.256Z,10.48
2023-01-28T18:20:41.055Z,9.95
2023-01-28T18:23:29.543Z,10.65
2023-01-28T18:26:16.324Z,11.13
2023-01-28T18:29:03.471Z,10.43
2023-01-28T18:31:51.848Z,9.80
2023-01-28T18:34:38.659Z,10.33
2023-01-28T18:37:25.444Z,10.52
2023-01-28T18:40:12.637Z,9.88
2023-01-28T18:42:59.411Z,10.80
2023-01-28T18:45:49.388Z,10.40
2023-01-28T18:48:36.212Z,8.98
2023-01-28T18:51:30.950Z,9.18
2023-01-28T18:54:17.890Z,10.88
2023-01-28T18:57:04.857Z,10.00
2023-01-28T18:59:51.687Z,9.80
2023-01-28T19:02:40.734Z,9.68
2023-01-28T19:05:27.752Z,9.63
2023-01-28T19:08:14.565Z,11.00
2023-01-28T19:11:01.758Z,9.63
2023-01-28T19:13:48.735Z,9.55
2023-01-28T19:16:37.160Z,10.73
2023-01-28T19:19:24.377Z,10.13
2023-01-28T19:22:11.184Z,10.00
2023-01-28T19:24:57.987Z,9.05
2023-01-28T19:27:44.736Z,11.50
2023-01-28T19:30:31.518Z,11.30
2023-01-28T19:33:18.305Z,9.38
2023-01-28T19:36:05.265Z,10.23
2023-01-28T19:38:53.079Z,10.05
2023-01-28T19:41:40.258Z,9.93
2023-01-28T19:44:28.802Z,9.85
2023-01-28T19:47:17.196Z,9.85
2023-01-28T19:50:04.392Z,10.80
2023-01-28T19:52:51.153Z,9.40
2023-01-28T19:55:38.271Z,10.45
2023-01-28T19:58:25.021Z,10.00
2023-01-28T20:01:24.003Z,10.40
2023-01-28T20:04:13.692Z,11.90
2023-01-28T20:07:06.074Z,10.98
2023-01-28T20:09:53.058Z,11.32
2023-01-28T20:12:39.815Z,10.15
2023-01-28T20:15:26.670Z,9.90
2023-01-28T20:18:13.493Z,10.52
2023-01-28T20:21:00.716Z,9.80
2023-01-28T20:23:48.744Z,9.98
2023-01-28T20:26:37.437Z,9.93
2023-01-28T20:29:24.328Z,10.25
2023-01-28T20:32:18.375Z,9.68
2023-01-28T20:35:07.081Z,10.50
2023-01-28T20:37:53.859Z,11.80
2023-01-28T20:40:42.298Z,9.70
2023-01-28T20:43:29.094Z,11.23
2023-01-28T20:46:21.243Z,11.13
2023-01-28T20:49:10.171Z,10.95
2023-01-28T20:51:57.072Z,11.60
2023-01-28T20:54:43.883Z,9.25
2023-01-28T20:57:30.738Z,9.95
2023-01-28T21:00:18.131Z,9.23
2023-01-28T21:03:05.115Z,10.02
2023-01-28T21:05:56.463Z,9.30
2023-01-28T21:08:43.549Z,9.65
2023-01-28T21:11:30.505Z,9.65
2023-01-28T21:14:17.302Z,9.18
2023-01-28T21:17:04.185Z,10.35
2023-01-28T21:19:50.984Z,10.38
2023-01-28T21:22:37.771Z,11.27
2023-01-28T21:25:24.594Z,11.05
2023-01-28T21:28:11.404Z,9.23
2023-01-28T21:31:09.367Z,10.38
2023-01-28T21:34:09.067Z,10.55
2023-01-28T21:36:56.071Z,10.73
2023-01-28T21:39:42.912Z,10.23
2023-01-28T21:42:29.827Z,10.98
2023-01-28T21:45:16.680Z,10.85
2023-01-28T21:48:03.529Z,11.10
2023-01-28T21:51:08.986Z,10.27
2023-01-28T21:53:55.773Z,10.88
2023-01-28T21:56:44.974Z,10.68
2023-01-28T21:59:32.600Z,10.25
2023-01-28T22:02:20.235Z,10.25
2023-01-28T22:05:07.907Z,10.82
2023-01-28T22:07:54.703Z,10.82
2023-01-28T22:10:43.061Z,10.60
2023-01-28T22:13:34.026Z,10.57
2023-01-28T22:16:21.389Z,10.95
2023-01-28T22:19:08.410Z,10.43
2023-01-28T22:21:55.270Z,11.20
2023-01-28T22:24:42.115Z,12.50
2023-01-28T22:27:29.025Z,10.60
2023-01-28T22:30:16.299Z,11.95
2023-01-28T22:33:03.393Z,10.05
2023-01-28T22:35:50.696Z,10.20
2023-01-28T22:38:39.144Z,10.50
2023-01-28T22:41:26.006Z,12.30
2023-01-28T22:44:12.867Z,10.10
2023-01-28T22:46:59.671Z,11.43
2023-01-28T22:49:46.507Z,11.50
2023-01-28T22:52:33.361Z,11.77
2023-01-28T22:55:21.565Z,10.80
2023-01-28T22:58:09.232Z,10.52
2023-01-28T23:01:02.440Z,11.50
2023-01-28T23:03:50.178Z,11.80
2023-01-28T23:06:37.320Z,12.68
2023-01-28T23:09:24.202Z,11.88
2023-01-28T23:12:11.225Z,11.20
2023-01-28T23:15:16.606Z,10.65
2023-01-28T23:18:21.886Z,11.10
2023-01-28T23:21:35.208Z,11.38
2023-01-28T23:24:22.182Z,11.35
2023-01-28T23:27:09.270Z,11.82
2023-01-28T23:29:56.090Z,10.55
2023-01-28T23:32:46.868Z,10.18
2023-01-28T23:35:33.773Z,14.15
2023-01-28T23:38:20.535Z,11.60
2023-01-28T23:41:08.648Z,11.95
2023-01-28T23:43:55.521Z,12.30
2023-01-28T23:46:42.374Z,13.85
2023-01-28T23:49:29.186Z,11.75
2023-01-28T23:52:15.971Z,11.25
2023-01-28T23:55:02.755Z,12.13
2023-01-28T23:57:49.642Z,11.70
